sensor_id;sensor_type;location;lat;lon;timestamp;P1;durP1;ratioP1;P2;durP2;ratioP2
35056;SDS011;21241;51.828;19.574;2024-02-15T00:01:09;29.60;;;25.80;;
35056;SDS011;21241;51.828;19.574;2024-02-15T00:03:40;26.60;;;23.70;;
35056;SDS011;21241;51.828;19.574;2024-02-15T00:06:08;29.00;;;26.10;;
35056;SDS011;21241;51.828;19.574;2024-02-15T00:08:36;30.00;;;26.00;;
35056;SDS011;21241;51.828;19.574;2024-02-15T00:11:04;28.20;;;25.10;;
35056;SDS011;21241;51.828;19.574;2024-02-15T00:13:32;29.20;;;26.10;;
35056;SDS011;21241;51.828;19.574;2024-02-15T00:16:01;27.20;;;24.30;;
35056;SDS011;21241;51.828;19.574;2024-02-15T00:18:31;27.00;;;24.10;;
35056;SDS011;21241;51.828;19.574;2024-02-15T00:20:59;28.20;;;25.30;;
35056;SDS011;21241;51.828;19.574;2024-02-15T00:23:28;28.40;;;25.40;;
35056;SDS011;21241;51.828;19.574;2024-02-15T00:25:56;27.60;;;24.60;;
35056;SDS011;21241;51.828;19.574;2024-02-15T00:28:23;28.20;;;25.30;;
35056;SDS011;21241;51.828;19.574;2024-02-15T00:30:52;27.10;;;24.30;;
35056;SDS011;21241;51.828;19.574;2024-02-15T00:33:20;27.70;;;24.90;;
35056;SDS011;21241;51.828;19.574;2024-02-15T00:35:50;29.40;;;26.40;;
35056;SDS011;21241;51.828;19.574;2024-02-15T00:38:19;28.70;;;25.20;;
35056;SDS011;21241;51.828;19.574;2024-02-15T00:40:47;28.50;;;25.50;;
35056;SDS011;21241;51.828;19.574;2024-02-15T00:43:15;27.90;;;25.10;;
35056;SDS011;21241;51.828;19.574;2024-02-15T00:45:43;27.40;;;24.50;;
35056;SDS011;21241;51.828;19.574;2024-02-15T00:48:11;28.80;;;25.80;;
35056;SDS011;21241;51.828;19.574;2024-02-15T00:50:39;27.80;;;24.90;;
35056;SDS011;21241;51.828;19.574;2024-02-15T00:53:07;27.50;;;24.70;;
35056;SDS011;21241;51.828;19.574;2024-02-15T00:55:34;27.90;;;25.10;;
35056;SDS011;21241;51.828;19.574;2024-02-15T00:58:02;28.40;;;25.40;;
35056;SDS011;21241;51.828;19.574;2024-02-15T01:00:30;29.00;;;25.80;;
35056;SDS011;21241;51.828;19.574;2024-02-15T01:02:58;27.40;;;24.60;;
35056;SDS011;21241;51.828;19.574;2024-02-15T01:05:27;28.90;;;25.50;;
35056;SDS011;21241;51.828;19.574;2024-02-15T01:07:55;29.30;;;26.20;;
35056;SDS011;21241;51.828;19.574;2024-02-15T01:10:23;27.10;;;24.40;;
35056;SDS011;21241;51.828;19.574;2024-02-15T01:12:52;28.40;;;25.50;;
35056;SDS011;21241;51.828;19.574;2024-02-15T01:15:20;28.30;;;25.50;;
35056;SDS011;21241;51.828;19.574;2024-02-15T01:17:48;29.00;;;25.50;;
35056;SDS011;21241;51.828;19.574;2024-02-15T01:20:17;28.70;;;25.60;;
35056;SDS011;21241;51.828;19.574;2024-02-15T01:22:45;28.70;;;25.80;;
35056;SDS011;21241;51.828;19.574;2024-02-15T01:25:12;29.50;;;26.50;;
35056;SDS011;21241;51.828;19.574;2024-02-15T01:27:43;28.40;;;25.50;;
35056;SDS011;21241;51.828;19.574;2024-02-15T01:30:11;30.30;;;27.20;;
35056;SDS011;21241;51.828;19.574;2024-02-15T01:32:39;29.10;;;26.20;;
35056;SDS011;21241;51.828;19.574;2024-02-15T01:35:10;32.00;;;27.20;;
35056;SDS011;21241;51.828;19.574;2024-02-15T01:37:38;29.90;;;26.90;;
35056;SDS011;21241;51.828;19.574;2024-02-15T01:40:06;32.60;;;29.50;;
35056;SDS011;21241;51.828;19.574;2024-02-15T01:42:34;32.50;;;29.40;;
35056;SDS011;21241;51.828;19.574;2024-02-15T01:45:03;33.70;;;30.20;;
35056;SDS011;21241;51.828;19.574;2024-02-15T01:47:32;32.70;;;29.30;;
35056;SDS011;21241;51.828;19.574;2024-02-15T01:50:00;33.00;;;29.70;;
35056;SDS011;21241;51.828;19.574;2024-02-15T01:52:28;33.10;;;29.70;;
35056;SDS011;21241;51.828;19.574;2024-02-15T01:54:55;34.00;;;30.60;;
35056;SDS011;21241;51.828;19.574;2024-02-15T01:57:24;34.60;;;31.20;;
35056;SDS011;21241;51.828;19.574;2024-02-15T01:59:52;35.50;;;31.60;;
35056;SDS011;21241;51.828;19.574;2024-02-15T02:02:22;36.90;;;31.70;;
35056;SDS011;21241;51.828;19.574;2024-02-15T02:04:52;36.00;;;32.40;;
35056;SDS011;21241;51.828;19.574;2024-02-15T02:07:20;38.90;;;34.80;;
35056;SDS011;21241;51.828;19.574;2024-02-15T02:09:48;38.80;;;34.80;;
35056;SDS011;21241;51.828;19.574;2024-02-15T02:12:16;39.40;;;35.50;;
35056;SDS011;21241;51.828;19.574;2024-02-15T02:14:45;38.90;;;35.00;;
35056;SDS011;21241;51.828;19.574;2024-02-15T02:17:13;40.70;;;36.50;;
35056;SDS011;21241;51.828;19.574;2024-02-15T02:19:42;42.30;;;37.70;;
35056;SDS011;21241;51.828;19.574;2024-02-15T02:22:11;40.30;;;36.30;;
35056;SDS011;21241;51.828;19.574;2024-02-15T02:24:40;40.60;;;36.30;;
35056;SDS011;21241;51.828;19.574;2024-02-15T02:27:26;41.50;;;37.00;;
35056;SDS011;21241;51.828;19.574;2024-02-15T02:29:55;42.40;;;38.30;;
35056;SDS011;21241;51.828;19.574;2024-02-15T02:32:25;41.20;;;37.10;;
35056;SDS011;21241;51.828;19.574;2024-02-15T02:34:53;41.20;;;36.90;;
35056;SDS011;21241;51.828;19.574;2024-02-15T02:37:25;42.60;;;38.00;;
35056;SDS011;21241;51.828;19.574;2024-02-15T02:39:53;42.10;;;38.00;;
35056;SDS011;21241;51.828;19.574;2024-02-15T02:42:20;45.00;;;40.40;;
35056;SDS011;21241;51.828;19.574;2024-02-15T02:44:48;44.40;;;39.80;;
35056;SDS011;21241;51.828;19.574;2024-02-15T02:47:16;44.20;;;39.80;;
35056;SDS011;21241;51.828;19.574;2024-02-15T02:49:44;44.40;;;39.80;;
35056;SDS011;21241;51.828;19.574;2024-02-15T02:52:12;46.90;;;42.10;;
35056;SDS011;21241;51.828;19.574;2024-02-15T02:54:40;46.30;;;41.50;;
35056;SDS011;21241;51.828;19.574;2024-02-15T02:57:08;46.60;;;41.80;;
35056;SDS011;21241;51.828;19.574;2024-02-15T02:59:36;45.20;;;40.50;;
35056;SDS011;21241;51.828;19.574;2024-02-15T03:02:07;46.40;;;41.70;;
35056;SDS011;21241;51.828;19.574;2024-02-15T03:04:36;47.70;;;42.90;;
35056;SDS011;21241;51.828;19.574;2024-02-15T03:07:06;47.30;;;42.40;;
35056;SDS011;21241;51.828;19.574;2024-02-15T03:09:34;48.20;;;43.20;;
35056;SDS011;21241;51.828;19.574;2024-02-15T03:12:04;47.00;;;42.30;;
35056;SDS011;21241;51.828;19.574;2024-02-15T03:14:33;47.70;;;43.00;;
35056;SDS011;21241;51.828;19.574;2024-02-15T03:17:03;47.60;;;42.60;;
35056;SDS011;21241;51.828;19.574;2024-02-15T03:19:31;48.90;;;43.90;;
35056;SDS011;21241;51.828;19.574;2024-02-15T03:21:59;49.30;;;44.20;;
35056;SDS011;21241;51.828;19.574;2024-02-15T03:24:28;49.30;;;44.40;;
35056;SDS011;21241;51.828;19.574;2024-02-15T03:26:55;48.50;;;43.80;;
35056;SDS011;21241;51.828;19.574;2024-02-15T03:29:23;51.70;;;46.30;;
35056;SDS011;21241;51.828;19.574;2024-02-15T03:31:52;48.90;;;44.00;;
35056;SDS011;21241;51.828;19.574;2024-02-15T03:34:22;49.30;;;44.00;;
35056;SDS011;21241;51.828;19.574;2024-02-15T03:36:52;48.00;;;43.00;;
35056;SDS011;21241;51.828;19.574;2024-02-15T03:39:21;48.60;;;43.70;;
35056;SDS011;21241;51.828;19.574;2024-02-15T03:41:51;47.80;;;42.70;;
35056;SDS011;21241;51.828;19.574;2024-02-15T03:44:19;51.40;;;46.40;;
35056;SDS011;21241;51.828;19.574;2024-02-15T03:46:47;47.60;;;42.80;;
35056;SDS011;21241;51.828;19.574;2024-02-15T03:49:18;51.50;;;46.20;;
35056;SDS011;21241;51.828;19.574;2024-02-15T03:51:47;50.50;;;45.30;;
35056;SDS011;21241;51.828;19.574;2024-02-15T03:54:15;50.30;;;45.00;;
35056;SDS011;21241;51.828;19.574;2024-02-15T03:56:47;52.00;;;46.80;;
35056;SDS011;21241;51.828;19.574;2024-02-15T03:59:20;52.40;;;46.90;;
35056;SDS011;21241;51.828;19.574;2024-02-15T04:01:53;51.20;;;46.10;;
35056;SDS011;21241;51.828;19.574;2024-02-15T04:04:21;53.60;;;48.00;;
35056;SDS011;21241;51.828;19.574;2024-02-15T04:06:50;54.10;;;48.60;;
35056;SDS011;21241;51.828;19.574;2024-02-15T04:09:19;55.00;;;49.40;;
35056;SDS011;21241;51.828;19.574;2024-02-15T04:11:48;54.30;;;48.90;;
35056;SDS011;21241;51.828;19.574;2024-02-15T04:14:21;52.70;;;47.40;;
35056;SDS011;21241;51.828;19.574;2024-02-15T04:16:49;55.20;;;49.70;;
35056;SDS011;21241;51.828;19.574;2024-02-15T04:19:16;53.80;;;48.50;;
35056;SDS011;21241;51.828;19.574;2024-02-15T04:21:47;52.70;;;47.50;;
35056;SDS011;21241;51.828;19.574;2024-02-15T04:24:15;52.20;;;47.00;;
35056;SDS011;21241;51.828;19.574;2024-02-15T04:26:44;53.50;;;48.00;;
35056;SDS011;21241;51.828;19.574;2024-02-15T04:29:15;53.10;;;48.00;;
35056;SDS011;21241;51.828;19.574;2024-02-15T04:31:43;52.90;;;47.30;;
35056;SDS011;21241;51.828;19.574;2024-02-15T04:34:11;50.40;;;45.60;;
35056;SDS011;21241;51.828;19.574;2024-02-15T04:36:39;50.30;;;45.30;;
35056;SDS011;21241;51.828;19.574;2024-02-15T04:39:10;51.00;;;45.70;;
35056;SDS011;21241;51.828;19.574;2024-02-15T04:41:42;53.20;;;47.90;;
35056;SDS011;21241;51.828;19.574;2024-02-15T04:44:10;50.60;;;45.60;;
35056;SDS011;21241;51.828;19.574;2024-02-15T04:46:39;52.30;;;47.00;;
35056;SDS011;21241;51.828;19.574;2024-02-15T04:49:08;51.80;;;46.80;;
35056;SDS011;21241;51.828;19.574;2024-02-15T04:51:37;52.10;;;47.10;;
35056;SDS011;21241;51.828;19.574;2024-02-15T04:54:08;53.10;;;47.90;;
35056;SDS011;21241;51.828;19.574;2024-02-15T04:56:40;51.60;;;46.40;;
35056;SDS011;21241;51.828;19.574;2024-02-15T04:59:11;53.30;;;47.90;;
35056;SDS011;21241;51.828;19.574;2024-02-15T05:01:43;51.20;;;46.20;;
35056;SDS011;21241;51.828;19.574;2024-02-15T05:04:11;51.50;;;46.20;;
35056;SDS011;21241;51.828;19.574;2024-02-15T05:06:40;50.80;;;45.80;;
35056;SDS011;21241;51.828;19.574;2024-02-15T05:09:07;50.40;;;45.60;;
35056;SDS011;21241;51.828;19.574;2024-02-15T05:11:38;50.70;;;45.60;;
35056;SDS011;21241;51.828;19.574;2024-02-15T05:14:09;50.70;;;45.90;;
35056;SDS011;21241;51.828;19.574;2024-02-15T05:16:38;50.90;;;45.80;;
35056;SDS011;21241;51.828;19.574;2024-02-15T05:19:09;50.10;;;45.20;;
35056;SDS011;21241;51.828;19.574;2024-02-15T05:21:40;51.60;;;46.50;;
35056;SDS011;21241;51.828;19.574;2024-02-15T05:24:08;50.20;;;45.30;;
35056;SDS011;21241;51.828;19.574;2024-02-15T05:26:36;51.90;;;46.50;;
35056;SDS011;21241;51.828;19.574;2024-02-15T05:29:04;52.70;;;47.70;;
35056;SDS011;21241;51.828;19.574;2024-02-15T05:31:32;54.40;;;48.70;;
35056;SDS011;21241;51.828;19.574;2024-02-15T05:34:02;53.70;;;48.40;;
35056;SDS011;21241;51.828;19.574;2024-02-15T05:36:30;55.20;;;49.70;;
35056;SDS011;21241;51.828;19.574;2024-02-15T05:38:58;54.80;;;49.40;;
35056;SDS011;21241;51.828;19.574;2024-02-15T05:41:26;56.70;;;51.10;;
35056;SDS011;21241;51.828;19.574;2024-02-15T05:43:54;60.90;;;55.00;;
35056;SDS011;21241;51.828;19.574;2024-02-15T05:46:22;54.40;;;49.10;;
35056;SDS011;21241;51.828;19.574;2024-02-15T05:48:50;56.10;;;50.60;;
35056;SDS011;21241;51.828;19.574;2024-02-15T05:51:19;55.10;;;49.70;;
35056;SDS011;21241;51.828;19.574;2024-02-15T05:53:47;55.60;;;50.10;;
35056;SDS011;21241;51.828;19.574;2024-02-15T05:56:17;56.40;;;50.40;;
35056;SDS011;21241;51.828;19.574;2024-02-15T05:58:45;56.80;;;51.30;;
35056;SDS011;21241;51.828;19.574;2024-02-15T06:01:13;55.10;;;49.80;;
35056;SDS011;21241;51.828;19.574;2024-02-15T06:03:41;55.20;;;49.80;;
35056;SDS011;21241;51.828;19.574;2024-02-15T06:06:12;55.20;;;49.60;;
35056;SDS011;21241;51.828;19.574;2024-02-15T06:08:40;54.50;;;48.90;;
35056;SDS011;21241;51.828;19.574;2024-02-15T06:11:08;53.10;;;47.70;;
35056;SDS011;21241;51.828;19.574;2024-02-15T06:13:38;51.20;;;46.10;;
35056;SDS011;21241;51.828;19.574;2024-02-15T06:16:06;53.50;;;48.40;;
35056;SDS011;21241;51.828;19.574;2024-02-15T06:18:37;51.60;;;46.60;;
35056;SDS011;21241;51.828;19.574;2024-02-15T06:21:05;51.70;;;46.80;;
35056;SDS011;21241;51.828;19.574;2024-02-15T06:23:33;49.30;;;44.50;;
35056;SDS011;21241;51.828;19.574;2024-02-15T06:26:01;49.70;;;44.70;;
35056;SDS011;21241;51.828;19.574;2024-02-15T06:28:30;48.10;;;43.30;;
35056;SDS011;21241;51.828;19.574;2024-02-15T06:31:17;48.40;;;43.30;;
35056;SDS011;21241;51.828;19.574;2024-02-15T06:34:03;48.50;;;43.60;;
35056;SDS011;21241;51.828;19.574;2024-02-15T06:37:04;49.70;;;44.60;;
35056;SDS011;21241;51.828;19.574;2024-02-15T06:39:50;48.60;;;43.90;;
35056;SDS011;21241;51.828;19.574;2024-02-15T06:42:19;48.50;;;43.90;;
35056;SDS011;21241;51.828;19.574;2024-02-15T06:44:48;50.20;;;45.20;;
35056;SDS011;21241;51.828;19.574;2024-02-15T06:47:16;46.80;;;42.20;;
35056;SDS011;21241;51.828;19.574;2024-02-15T06:49:47;47.50;;;42.80;;
35056;SDS011;21241;51.828;19.574;2024-02-15T06:52:18;46.40;;;41.90;;
35056;SDS011;21241;51.828;19.574;2024-02-15T06:54:46;47.00;;;42.40;;
35056;SDS011;21241;51.828;19.574;2024-02-15T06:57:14;44.80;;;40.30;;
35056;SDS011;21241;51.828;19.574;2024-02-15T06:59:46;46.40;;;42.00;;
35056;SDS011;21241;51.828;19.574;2024-02-15T07:02:14;43.70;;;39.40;;
35056;SDS011;21241;51.828;19.574;2024-02-15T07:04:43;43.80;;;39.50;;
35056;SDS011;21241;51.828;19.574;2024-02-15T07:07:12;42.10;;;37.90;;
35056;SDS011;21241;51.828;19.574;2024-02-15T07:09:49;44.40;;;40.00;;
35056;SDS011;21241;51.828;19.574;2024-02-15T07:12:17;42.50;;;38.20;;
35056;SDS011;21241;51.828;19.574;2024-02-15T07:14:46;44.40;;;40.00;;
35056;SDS011;21241;51.828;19.574;2024-02-15T07:17:15;41.10;;;36.80;;
35056;SDS011;21241;51.828;19.574;2024-02-15T07:19:43;41.70;;;37.60;;
35056;SDS011;21241;51.828;19.574;2024-02-15T07:22:12;40.00;;;36.00;;
35056;SDS011;21241;51.828;19.574;2024-02-15T07:24:40;40.60;;;36.40;;
35056;SDS011;21241;51.828;19.574;2024-02-15T07:27:08;40.30;;;36.30;;
35056;SDS011;21241;51.828;19.574;2024-02-15T07:29:37;40.60;;;36.50;;
35056;SDS011;21241;51.828;19.574;2024-02-15T07:32:05;39.30;;;35.20;;
35056;SDS011;21241;51.828;19.574;2024-02-15T07:34:34;40.00;;;36.00;;
35056;SDS011;21241;51.828;19.574;2024-02-15T07:37:02;38.60;;;34.90;;
35056;SDS011;21241;51.828;19.574;2024-02-15T07:39:30;38.90;;;35.00;;
35056;SDS011;21241;51.828;19.574;2024-02-15T07:41:58;38.90;;;35.00;;
35056;SDS011;21241;51.828;19.574;2024-02-15T07:44:26;38.40;;;34.60;;
35056;SDS011;21241;51.828;19.574;2024-02-15T07:46:58;38.40;;;34.70;;
35056;SDS011;21241;51.828;19.574;2024-02-15T07:49:28;37.70;;;34.10;;
35056;SDS011;21241;51.828;19.574;2024-02-15T07:51:56;38.40;;;34.70;;
35056;SDS011;21241;51.828;19.574;2024-02-15T07:54:25;36.90;;;33.20;;
35056;SDS011;21241;51.828;19.574;2024-02-15T07:56:53;36.60;;;32.80;;
35056;SDS011;21241;51.828;19.574;2024-02-15T07:59:21;36.30;;;32.90;;
35056;SDS011;21241;51.828;19.574;2024-02-15T08:01:49;36.90;;;33.10;;
35056;SDS011;21241;51.828;19.574;2024-02-15T08:04:20;35.90;;;32.20;;
35056;SDS011;21241;51.828;19.574;2024-02-15T08:06:52;35.70;;;32.40;;
35056;SDS011;21241;51.828;19.574;2024-02-15T08:09:22;34.70;;;31.40;;
35056;SDS011;21241;51.828;19.574;2024-02-15T08:11:52;33.70;;;30.50;;
35056;SDS011;21241;51.828;19.574;2024-02-15T08:14:19;33.60;;;30.30;;
35056;SDS011;21241;51.828;19.574;2024-02-15T08:16:48;34.10;;;31.00;;
35056;SDS011;21241;51.828;19.574;2024-02-15T08:19:16;34.30;;;30.90;;
35056;SDS011;21241;51.828;19.574;2024-02-15T08:21:44;33.70;;;30.50;;
35056;SDS011;21241;51.828;19.574;2024-02-15T08:24:14;34.20;;;29.90;;
35056;SDS011;21241;51.828;19.574;2024-02-15T08:26:42;32.50;;;29.50;;
35056;SDS011;21241;51.828;19.574;2024-02-15T08:29:11;30.90;;;28.00;;
35056;SDS011;21241;51.828;19.574;2024-02-15T08:31:39;30.80;;;27.90;;
35056;SDS011;21241;51.828;19.574;2024-02-15T08:34:08;29.30;;;26.50;;
35056;SDS011;21241;51.828;19.574;2024-02-15T08:36:41;31.80;;;28.70;;
35056;SDS011;21241;51.828;19.574;2024-02-15T08:39:09;32.50;;;29.30;;
35056;SDS011;21241;51.828;19.574;2024-02-15T08:41:39;32.10;;;29.10;;
35056;SDS011;21241;51.828;19.574;2024-02-15T08:44:07;33.40;;;30.00;;
35056;SDS011;21241;51.828;19.574;2024-02-15T08:46:39;31.20;;;28.10;;
35056;SDS011;21241;51.828;19.574;2024-02-15T08:49:07;31.20;;;28.40;;
35056;SDS011;21241;51.828;19.574;2024-02-15T08:51:35;30.80;;;27.90;;
35056;SDS011;21241;51.828;19.574;2024-02-15T08:54:04;30.20;;;27.30;;
35056;SDS011;21241;51.828;19.574;2024-02-15T08:56:33;30.30;;;27.40;;
35056;SDS011;21241;51.828;19.574;2024-02-15T08:59:01;31.40;;;28.40;;
35056;SDS011;21241;51.828;19.574;2024-02-15T09:01:31;32.40;;;29.40;;
35056;SDS011;21241;51.828;19.574;2024-02-15T09:04:01;30.70;;;27.80;;
35056;SDS011;21241;51.828;19.574;2024-02-15T09:06:29;29.60;;;27.00;;
35056;SDS011;21241;51.828;19.574;2024-02-15T09:08:58;29.50;;;26.80;;
35056;SDS011;21241;51.828;19.574;2024-02-15T09:11:29;30.80;;;28.00;;
35056;SDS011;21241;51.828;19.574;2024-02-15T09:13:58;31.30;;;28.30;;
35056;SDS011;21241;51.828;19.574;2024-02-15T09:16:26;31.50;;;28.30;;
35056;SDS011;21241;51.828;19.574;2024-02-15T09:18:54;31.40;;;28.40;;
35056;SDS011;21241;51.828;19.574;2024-02-15T09:21:22;30.40;;;27.50;;
35056;SDS011;21241;51.828;19.574;2024-02-15T09:23:52;29.10;;;26.60;;
35056;SDS011;21241;51.828;19.574;2024-02-15T09:26:20;28.30;;;25.80;;
35056;SDS011;21241;51.828;19.574;2024-02-15T09:28:48;28.40;;;25.70;;
35056;SDS011;21241;51.828;19.574;2024-02-15T09:31:15;27.80;;;25.10;;
35056;SDS011;21241;51.828;19.574;2024-02-15T09:33:44;27.60;;;25.10;;
35056;SDS011;21241;51.828;19.574;2024-02-15T09:36:13;28.60;;;25.90;;
35056;SDS011;21241;51.828;19.574;2024-02-15T09:38:41;27.70;;;25.10;;
35056;SDS011;21241;51.828;19.574;2024-02-15T09:41:09;28.20;;;25.60;;
35056;SDS011;21241;51.828;19.574;2024-02-15T09:43:37;26.60;;;24.20;;
35056;SDS011;21241;51.828;19.574;2024-02-15T09:46:05;27.90;;;25.30;;
35056;SDS011;21241;51.828;19.574;2024-02-15T09:48:34;27.70;;;25.10;;
35056;SDS011;21241;51.828;19.574;2024-02-15T09:51:03;26.40;;;24.00;;
35056;SDS011;21241;51.828;19.574;2024-02-15T09:53:31;26.50;;;24.20;;
35056;SDS011;21241;51.828;19.574;2024-02-15T09:56:00;25.40;;;23.00;;
35056;SDS011;21241;51.828;19.574;2024-02-15T09:58:32;25.70;;;23.40;;
35056;SDS011;21241;51.828;19.574;2024-02-15T10:01:03;25.90;;;23.60;;
35056;SDS011;21241;51.828;19.574;2024-02-15T10:03:37;24.50;;;22.10;;
35056;SDS011;21241;51.828;19.574;2024-02-15T10:06:08;25.70;;;23.20;;
35056;SDS011;21241;51.828;19.574;2024-02-15T10:08:37;25.30;;;22.90;;
35056;SDS011;21241;51.828;19.574;2024-02-15T10:11:06;24.60;;;22.40;;
35056;SDS011;21241;51.828;19.574;2024-02-15T10:13:38;26.30;;;23.90;;
35056;SDS011;21241;51.828;19.574;2024-02-15T10:16:19;25.80;;;23.30;;
35056;SDS011;21241;51.828;19.574;2024-02-15T10:18:52;24.90;;;22.50;;
35056;SDS011;21241;51.828;19.574;2024-02-15T10:21:27;24.00;;;21.70;;
35056;SDS011;21241;51.828;19.574;2024-02-15T10:24:07;20.90;;;18.90;;
35056;SDS011;21241;51.828;19.574;2024-02-15T10:26:36;19.80;;;18.10;;
35056;SDS011;21241;51.828;19.574;2024-02-15T10:29:08;21.20;;;19.20;;
35056;SDS011;21241;51.828;19.574;2024-02-15T10:31:38;18.80;;;17.10;;
35056;SDS011;21241;51.828;19.574;2024-02-15T10:34:13;19.60;;;17.80;;
35056;SDS011;21241;51.828;19.574;2024-02-15T10:36:42;18.80;;;17.00;;
35056;SDS011;21241;51.828;19.574;2024-02-15T10:39:17;19.90;;;18.20;;
35056;SDS011;21241;51.828;19.574;2024-02-15T10:41:47;19.30;;;17.40;;
35056;SDS011;21241;51.828;19.574;2024-02-15T10:44:20;19.40;;;17.70;;
35056;SDS011;21241;51.828;19.574;2024-02-15T10:46:50;17.70;;;16.30;;
35056;SDS011;21241;51.828;19.574;2024-02-15T10:49:19;17.60;;;16.10;;
35056;SDS011;21241;51.828;19.574;2024-02-15T10:51:55;17.20;;;15.50;;
35056;SDS011;21241;51.828;19.574;2024-02-15T10:54:28;17.50;;;15.90;;
35056;SDS011;21241;51.828;19.574;2024-02-15T10:57:04;16.90;;;15.30;;
35056;SDS011;21241;51.828;19.574;2024-02-15T10:59:34;16.20;;;14.70;;
35056;SDS011;21241;51.828;19.574;2024-02-15T11:02:23;15.10;;;13.70;;
35056;SDS011;21241;51.828;19.574;2024-02-15T11:05:14;15.50;;;14.00;;
35056;SDS011;21241;51.828;19.574;2024-02-15T11:07:49;15.20;;;13.90;;
35056;SDS011;21241;51.828;19.574;2024-02-15T11:10:17;15.40;;;14.00;;
35056;SDS011;21241;51.828;19.574;2024-02-15T11:12:45;15.10;;;13.80;;
35056;SDS011;21241;51.828;19.574;2024-02-15T11:18:03;16.70;;;15.10;;
35056;SDS011;21241;51.828;19.574;2024-02-15T11:23:01;16.40;;;14.70;;
35056;SDS011;21241;51.828;19.574;2024-02-15T11:25:33;15.50;;;13.90;;
35056;SDS011;21241;51.828;19.574;2024-02-15T11:28:33;16.40;;;14.90;;
35056;SDS011;21241;51.828;19.574;2024-02-15T11:30:56;16.00;;;14.60;;
35056;SDS011;21241;51.828;19.574;2024-02-15T11:33:34;16.60;;;15.00;;
35056;SDS011;21241;51.828;19.574;2024-02-15T11:38:38;14.80;;;13.40;;
35056;SDS011;21241;51.828;19.574;2024-02-15T11:41:09;15.10;;;13.70;;
35056;SDS011;21241;51.828;19.574;2024-02-15T11:46:25;14.00;;;12.70;;
35056;SDS011;21241;51.828;19.574;2024-02-15T11:48:54;13.30;;;12.00;;
35056;SDS011;21241;51.828;19.574;2024-02-15T11:51:42;13.50;;;12.30;;
35056;SDS011;21241;51.828;19.574;2024-02-15T11:54:11;14.90;;;13.40;;
35056;SDS011;21241;51.828;19.574;2024-02-15T11:59:16;14.90;;;13.50;;
35056;SDS011;21241;51.828;19.574;2024-02-15T12:01:57;13.20;;;11.80;;
35056;SDS011;21241;51.828;19.574;2024-02-15T12:04:44;11.90;;;10.80;;
35056;SDS011;21241;51.828;19.574;2024-02-15T12:07:31;13.50;;;12.10;;
35056;SDS011;21241;51.828;19.574;2024-02-15T12:10:18;11.10;;;10.00;;
35056;SDS011;21241;51.828;19.574;2024-02-15T12:13:05;11.40;;;10.40;;
35056;SDS011;21241;51.828;19.574;2024-02-15T12:16:01;10.10;;;9.20;;
35056;SDS011;21241;51.828;19.574;2024-02-15T12:18:48;11.80;;;10.70;;
35056;SDS011;21241;51.828;19.574;2024-02-15T12:21:22;10.60;;;9.60;;
35056;SDS011;21241;51.828;19.574;2024-02-15T12:23:54;11.00;;;9.90;;
35056;SDS011;21241;51.828;19.574;2024-02-15T12:26:23;12.10;;;10.80;;
35056;SDS011;21241;51.828;19.574;2024-02-15T12:28:52;11.70;;;10.70;;
35056;SDS011;21241;51.828;19.574;2024-02-15T12:31:24;11.40;;;10.40;;
35056;SDS011;21241;51.828;19.574;2024-02-15T12:34:01;11.80;;;10.60;;
35056;SDS011;21241;51.828;19.574;2024-02-15T12:36:36;9.90;;;9.10;;
35056;SDS011;21241;51.828;19.574;2024-02-15T12:39:06;9.70;;;8.50;;
35056;SDS011;21241;51.828;19.574;2024-02-15T12:41:38;8.90;;;8.10;;
35056;SDS011;21241;51.828;19.574;2024-02-15T12:44:10;7.80;;;7.10;;
35056;SDS011;21241;51.828;19.574;2024-02-15T12:46:38;7.30;;;6.70;;
35056;SDS011;21241;51.828;19.574;2024-02-15T12:51:50;8.90;;;7.60;;
35056;SDS011;21241;51.828;19.574;2024-02-15T12:54:24;7.20;;;6.50;;
35056;SDS011;21241;51.828;19.574;2024-02-15T12:56:52;6.90;;;6.30;;
35056;SDS011;21241;51.828;19.574;2024-02-15T12:59:37;6.00;;;5.40;;
35056;SDS011;21241;51.828;19.574;2024-02-15T13:02:05;6.10;;;5.40;;
35056;SDS011;21241;51.828;19.574;2024-02-15T13:04:33;5.70;;;5.10;;
35056;SDS011;21241;51.828;19.574;2024-02-15T13:07:01;5.20;;;4.80;;
35056;SDS011;21241;51.828;19.574;2024-02-15T13:09:29;5.50;;;4.90;;
35056;SDS011;21241;51.828;19.574;2024-02-15T13:11:56;4.60;;;4.20;;
35056;SDS011;21241;51.828;19.574;2024-02-15T13:14:26;5.70;;;5.10;;
35056;SDS011;21241;51.828;19.574;2024-02-15T13:16:57;5.80;;;5.30;;
35056;SDS011;21241;51.828;19.574;2024-02-15T13:19:25;5.90;;;5.30;;
35056;SDS011;21241;51.828;19.574;2024-02-15T13:21:54;5.50;;;5.00;;
35056;SDS011;21241;51.828;19.574;2024-02-15T13:24:25;16.80;;;6.80;;
35056;SDS011;21241;51.828;19.574;2024-02-15T13:26:54;6.50;;;5.80;;
35056;SDS011;21241;51.828;19.574;2024-02-15T13:29:27;6.00;;;5.50;;
35056;SDS011;21241;51.828;19.574;2024-02-15T13:31:55;7.60;;;6.70;;
35056;SDS011;21241;51.828;19.574;2024-02-15T13:34:23;6.10;;;5.50;;
35056;SDS011;21241;51.828;19.574;2024-02-15T13:36:52;6.10;;;5.50;;
35056;SDS011;21241;51.828;19.574;2024-02-15T13:39:23;7.50;;;6.40;;
35056;SDS011;21241;51.828;19.574;2024-02-15T13:41:51;8.20;;;6.10;;
35056;SDS011;21241;51.828;19.574;2024-02-15T13:44:20;6.30;;;5.80;;
35056;SDS011;21241;51.828;19.574;2024-02-15T13:46:48;5.80;;;4.90;;
35056;SDS011;21241;51.828;19.574;2024-02-15T13:49:17;6.00;;;5.40;;
35056;SDS011;21241;51.828;19.574;2024-02-15T13:51:58;5.90;;;5.30;;
35056;SDS011;21241;51.828;19.574;2024-02-15T13:54:31;6.90;;;6.10;;
35056;SDS011;21241;51.828;19.574;2024-02-15T13:57:00;8.00;;;5.90;;
35056;SDS011;21241;51.828;19.574;2024-02-15T13:59:29;10.40;;;6.80;;
35056;SDS011;21241;51.828;19.574;2024-02-15T14:01:57;6.20;;;5.70;;
35056;SDS011;21241;51.828;19.574;2024-02-15T14:04:25;7.50;;;6.70;;
35056;SDS011;21241;51.828;19.574;2024-02-15T14:06:54;7.40;;;6.50;;
35056;SDS011;21241;51.828;19.574;2024-02-15T14:09:24;7.10;;;6.40;;
35056;SDS011;21241;51.828;19.574;2024-02-15T14:11:54;7.60;;;6.10;;
35056;SDS011;21241;51.828;19.574;2024-02-15T14:14:22;8.70;;;6.00;;
35056;SDS011;21241;51.828;19.574;2024-02-15T14:16:49;6.20;;;5.60;;
35056;SDS011;21241;51.828;19.574;2024-02-15T14:19:17;7.20;;;5.90;;
35056;SDS011;21241;51.828;19.574;2024-02-15T14:21:45;6.60;;;6.00;;
35056;SDS011;21241;51.828;19.574;2024-02-15T14:24:13;9.20;;;6.40;;
35056;SDS011;21241;51.828;19.574;2024-02-15T14:26:41;11.10;;;6.40;;
35056;SDS011;21241;51.828;19.574;2024-02-15T14:29:09;8.00;;;6.60;;
35056;SDS011;21241;51.828;19.574;2024-02-15T14:31:37;6.20;;;5.30;;
35056;SDS011;21241;51.828;19.574;2024-02-15T14:34:23;6.30;;;5.60;;
35056;SDS011;21241;51.828;19.574;2024-02-15T14:36:53;5.50;;;5.10;;
35056;SDS011;21241;51.828;19.574;2024-02-15T14:39:21;6.80;;;6.00;;
35056;SDS011;21241;51.828;19.574;2024-02-15T14:41:49;5.80;;;4.60;;
35056;SDS011;21241;51.828;19.574;2024-02-15T14:44:17;5.00;;;4.50;;
35056;SDS011;21241;51.828;19.574;2024-02-15T14:46:45;5.80;;;5.20;;